Latest Weather Observations for Lake Julius

IDQ60801

Issued at 5:35 pm EST Saturday 29 November 2014 (issued every 30 minutes, with the page automatically refreshed every 10 minutes)

About weather observations | Map of weather stations | Latest weather observations for QLD | Other Formats
Station Details ID: 029181 Name: LAKE JULIUS AWS Lat: -20.12 Lon: 139.73 Height: 237.0 m
Data from the previous 72 hours. | See also: Recent months for locations in Queensland
Date/Time
EST
Temp
°C
App
Temp
°C
Dew
Point
Rel
Hum
%
Delta-T
°C
Wind Press
QNH
hPa
Press
MSL
hPa
Rain
since 9 am
mm
Dir
 
Spd
km/h
Gust
km/h
Spd
kts
Gust
kts
29/05:30pm 34.7 33.1 17.4 35 11.2 N 22 32 12 17 - - 0.0
29/05:00pm 34.4 33.4 17.6 37 10.9 NNE 19 30 10 16 - - 0.0
29/04:30pm 34.8 34.2 17.5 35 11.2 N 17 28 9 15 - - 0.0
29/04:00pm 34.3 32.3 17.5 36 10.9 NNE 24 37 13 20 - - 0.0
29/03:30pm 35.2 35.1 17.0 34 11.8 N 13 28 7 15 - - 0.0
29/03:00pm 35.1 34.8 17.3 34 11.5 NNE 15 24 8 13 - - 0.0
29/02:30pm 34.8 34.2 17.5 35 11.2 NNE 17 26 9 14 - - 0.0
29/02:00pm 34.8 32.8 17.5 35 11.2 NNE 24 33 13 18 - - 0.0
29/01:30pm 35.0 34.2 18.1 36 11.1 N 19 26 10 14 - - 0.0
29/01:00pm 34.3 34.8 17.5 36 10.9 ENE 11 22 6 12 - - 0.0
29/12:30pm 33.6 34.0 17.3 37 10.5 N 11 24 6 13 - - 0.0
29/12:00pm 34.0 33.6 17.2 36 10.8 NNE 15 24 8 13 - - 0.0
29/11:30am 33.9 33.5 17.2 37 10.8 N 15 22 8 12 - - 0.0
29/11:00am 33.3 33.4 16.6 36 10.7 N 11 19 6 10 - - 0.0
29/10:30am 32.5 34.3 18.3 43 9.3 NW 6 13 3 7 - - 0.0
29/10:00am 32.0 33.1 17.9 43 9.1 NNW 9 15 5 8 - - 0.0
29/09:30am 31.6 34.2 19.2 47 8.2 NNW 4 7 2 4 - - 0.0
29/09:00am 29.8 31.7 18.9 52 7.1 NNW 7 11 4 6 - - 0.0
29/08:30am 28.9 30.9 19.2 55 6.3 NW 7 11 4 6 - - 0.0
29/08:00am 28.2 30.6 19.7 60 5.6 N 6 7 3 4 - - 0.0
29/07:30am 28.1 31.5 20.1 62 5.3 NE 2 6 1 3 - - 0.0
29/07:00am 26.7 29.2 20.3 68 4.2 NNE 7 13 4 7 - - 0.0
29/06:30am 26.0 29.0 20.8 73 3.4 SSW 6 9 3 5 - - 0.0
29/06:00am 25.7 29.3 20.5 73 3.4 SSW 2 4 1 2 - - 0.0
29/05:30am 26.0 28.3 20.6 72 3.6 SSW 9 13 5 7 - - 0.0
29/05:00am 26.0 28.6 20.1 70 3.9 SW 6 7 3 4 - - 0.0
29/04:30am 26.3 28.6 19.9 68 4.2 SSW 7 11 4 6 - - 0.0
29/04:00am 26.7 29.2 19.8 66 4.5 SSW 6 11 3 6 - - 0.0
29/03:30am 26.8 29.3 19.9 66 4.5 SSW 6 7 3 4 - - 0.0
29/03:00am 27.0 29.4 19.6 64 4.8 W 6 9 3 5 - - 0.0
29/02:30am 27.1 29.1 19.2 62 5.1 WSW 7 13 4 7 - - 0.0
29/02:00am 27.1 29.5 18.9 61 5.3 SW 4 7 2 4 - - 0.0
29/01:30am 27.1 29.5 18.7 60 5.4 N 4 6 2 3 - - 0.0
29/01:00am 26.9 29.3 18.7 60 5.3 E 4 6 2 3 - - 0.0
29/12:30am 26.9 28.2 19.3 63 4.9 WNW 11 20 6 11 - - 0.0
29/12:00am 26.8 29.2 19.7 65 4.6 W 6 19 3 10 - - 0.0
 
Date/Time
EST
Temp
°C
App
Temp
°C
Dew
Point
Rel
Hum
%
Delta-T
°C
Wind Press
QNH
hPa
Press
MSL
hPa
Rain
since 9 am
mm
Dir
 
Spd
km/h
Gust
km/h
Spd
kts
Gust
kts
28/11:30pm 26.8 29.5 20.2 67 4.4 W 6 13 3 7 - - 0.0
28/11:00pm 26.6 29.4 20.4 69 4.1 N 6 13 3 7 - - 0.0
28/10:30pm 26.3 28.6 20.6 71 3.8 N 9 15 5 8 - - 0.0
28/10:00pm 26.6 28.6 20.7 70 3.9 N 11 22 6 12 - - 0.0
28/09:30pm 26.9 28.1 20.7 69 4.1 N 15 20 8 11 - - 0.0
28/09:00pm 27.8 29.3 19.8 61 5.3 NNE 11 15 6 8 - - 0.0
28/08:30pm 27.5 29.4 19.8 63 5.1 NNE 9 13 5 7 - - 0.0
28/08:00pm 27.9 27.7 19.7 61 5.4 NE 20 32 11 17 - - 0.0
28/07:30pm 28.4 28.5 19.9 60 5.6 ENE 19 26 10 14 - - 0.0
28/07:00pm 28.8 28.8 18.9 55 6.4 NNE 17 30 9 16 - - 0.0
28/06:30pm 29.9 30.4 18.3 49 7.5 ESE 13 20 7 11 - - 0.0
28/06:00pm 31.8 31.0 18.0 43 9.0 S 19 33 10 18 - - 0.0
28/05:30pm 33.1 30.9 16.9 38 10.4 S 24 44 13 24 - - 0.0
28/05:19pm 35.2 32.1 16.5 33 12.0 S 28 39 15 21 - - 0.0
28/05:00pm 35.9 36.8 15.1 29 13.1 NNW 4 7 2 4 - - 0.0
28/04:30pm 36.7 36.7 15.2 27 13.6 N 9 17 5 9 - - 0.0
28/04:00pm 36.5 36.8 16.1 29 13.1 NW 9 15 5 8 - - 0.0
28/03:30pm 36.4 37.5 17.0 31 12.6 N 7 13 4 7 - - 0.0
28/03:00pm 36.0 36.0 16.2 31 12.7 N 11 20 6 11 - - 0.0
28/02:30pm 36.3 36.2 17.0 32 12.5 N 13 22 7 12 - - 0.0
28/02:00pm 35.3 34.7 16.6 33 12.0 N 15 20 8 11 - - 0.0
28/01:30pm 36.3 36.4 17.4 32 12.3 NNE 13 22 7 12 - - 0.0
28/01:00pm 36.0 36.6 16.7 31 12.5 ESE 9 19 5 10 - - 0.0
28/12:30pm 34.5 34.9 16.4 34 11.6 NE 9 20 5 11 - - 0.0
28/12:00pm 34.4 34.6 16.7 34 11.4 NNE 11 24 6 13 - - 0.0
28/11:30am 33.5 33.0 16.8 36 10.7 NE 15 28 8 15 - - 0.0
28/11:00am 33.9 34.3 17.2 37 10.8 E 11 20 6 11 - - 0.0
28/10:30am 33.3 33.6 17.9 40 10.0 E 13 24 7 13 - - 0.0
28/10:00am 31.6 31.7 16.4 40 9.6 ENE 11 26 6 14 - - 0.0
28/09:30am 31.1 31.0 17.0 42 9.0 NE 13 20 7 11 - - 0.0
28/09:00am 30.1 30.4 16.9 45 8.4 ENE 11 20 6 11 - - 13.4
28/08:30am 30.1 31.2 17.9 48 7.9 ESE 9 19 5 10 - - 13.4
28/08:00am 29.1 30.4 17.6 50 7.4 SE 7 19 4 10 - - 13.4
28/07:30am 28.5 30.9 18.9 56 6.2 ESE 4 7 2 4 - - 13.4
28/07:00am 27.2 31.3 20.8 68 4.3 CALM 0 0 0 0 - - 13.4
28/06:30am 26.2 30.8 21.8 77 3.0 CALM 0 0 0 0 - - 13.4
28/06:00am 25.7 30.3 21.8 79 2.6 CALM 0 0 0 0 - - 13.4
28/05:30am 26.0 29.7 20.8 73 3.4 SW 2 7 1 4 - - 13.4
28/05:00am 25.9 29.3 20.9 74 3.3 SSW 4 7 2 4 - - 13.4
28/04:30am 26.1 28.9 20.4 71 3.8 SSW 6 9 3 5 - - 13.4
28/04:00am 26.0 29.1 21.0 74 3.3 SSW 6 9 3 5 - - 13.4
28/03:30am 25.7 29.5 21.6 78 2.7 WSW 4 7 2 4 - - 13.4
28/03:00am 26.1 29.9 20.9 73 3.5 S 2 4 1 2 - - 13.4
28/02:30am 26.3 29.9 20.6 71 3.8 SE 2 6 1 3 - - 13.4
28/02:00am 26.2 29.8 21.2 74 3.3 S 4 6 2 3 - - 13.4
28/01:30am 26.1 28.6 20.2 70 3.9 S 7 13 4 7 - - 13.4
28/01:00am 26.0 28.7 20.3 71 3.8 SW 6 9 3 5 - - 13.4
28/12:30am 25.8 27.7 20.6 73 3.4 S 11 19 6 10 - - 13.4
28/12:00am 26.1 26.1 19.7 68 4.2 S 19 28 10 15 - - 13.4
 
Date/Time
EST
Temp
°C
App
Temp
°C
Dew
Point
Rel
Hum
%
Delta-T
°C
Wind Press
QNH
hPa
Press
MSL
hPa
Rain
since 9 am
mm
Dir
 
Spd
km/h
Gust
km/h
Spd
kts
Gust
kts
27/11:30pm 25.7 28.4 20.3 72 3.6 N 6 17 3 9 - - 13.4
27/11:00pm 26.3 28.7 19.7 67 4.3 NW 6 11 3 6 - - 13.4
27/10:30pm 26.6 27.6 18.7 62 5.1 NW 11 20 6 11 - - 13.4
27/10:00pm 26.2 27.1 19.3 65 4.5 N 13 19 7 10 - - 13.4
27/09:30pm 25.1 26.6 21.2 79 2.6 N 15 28 8 15 - - 13.4
27/09:00pm 24.5 26.1 22.2 87 1.5 NNE 17 30 9 16 - - 13.4
27/08:30pm 24.0 27.9 23.0 94 0.7 N 7 13 4 7 - - 13.0
27/08:00pm 24.1 29.0 23.1 94 0.7 WNW 2 4 1 2 - - 11.8
27/07:30pm 23.5 24.9 22.5 94 0.7 SSW 19 26 10 14 - - 10.8
27/07:00pm 24.5 25.3 22.4 88 1.4 S 22 33 12 18 - - 3.2
27/06:38pm 25.7 24.7 22.0 80 2.5 S 30 44 16 24 - - 2.6
27/06:30pm 26.8 30.3 22.2 76 3.1 S 7 20 4 11 - - 1.4
27/06:00pm 30.7 30.8 19.1 50 7.6 NW 17 28 9 15 - - 0.0
27/05:30pm 32.2 31.8 18.8 45 8.8 N 19 28 10 15 - - 0.0
27/05:00pm 35.3 35.8 16.6 33 12.0 NNE 9 17 5 9 - - 0.0
27/04:30pm 36.8 37.0 15.8 28 13.4 NNE 9 28 5 15 - - 0.0
27/04:00pm 36.3 37.2 16.5 31 12.8 E 7 15 4 8 - - 0.0
27/03:30pm 36.8 37.2 16.4 30 13.1 NE 9 19 5 10 - - 0.0
27/03:00pm 37.5 37.2 16.4 28 13.6 NNE 13 24 7 13 - - 0.0
27/02:30pm 38.7 39.7 16.9 27 14.2 N 7 19 4 10 - - 0.0
27/02:00pm 36.9 38.2 17.0 31 12.9 NNW 6 11 3 6 - - 0.0
27/01:30pm 36.5 36.4 16.1 29 13.1 NNE 11 20 6 11 - - 0.0
27/01:00pm 35.9 35.5 17.1 32 12.2 NNE 15 26 8 14 - - 0.0
27/12:30pm 35.3 34.7 17.5 34 11.6 NNE 17 22 9 12 - - 0.0
27/12:00pm 34.9 34.3 17.6 35 11.3 NE 17 26 9 14 - - 0.0
27/11:30am 34.9 32.6 16.7 34 11.7 N 24 30 13 16 - - 0.0
27/11:00am 35.9 34.7 15.1 29 13.1 NE 15 24 8 13 - - 0.0
27/10:30am 35.2 34.4 13.9 27 13.2 NE 11 28 6 15 - - 0.0
27/10:00am 34.3 32.6 13.7 29 12.7 NE 15 22 8 12 - - 0.0
27/09:30am 34.2 33.4 14.1 29 12.4 ENE 11 20 6 11 - - 0.0
27/09:00am 34.3 33.9 14.2 29 12.5 ESE 9 19 5 10 - - 0.0
27/08:30am 33.1 33.1 14.2 32 11.7 ESE 7 17 4 9 - - 0.0
27/08:00am 31.3 32.5 16.9 42 9.2 S 6 11 3 6 - - 0.0
27/07:30am 29.8 32.3 19.8 55 6.6 S 6 7 3 4 - - 0.0
27/07:00am 28.4 31.6 20.4 62 5.3 SSW 4 6 2 3 - - 0.0
27/06:30am 27.8 31.4 20.6 65 4.8 SSW 2 6 1 3 - - 0.0
27/06:00am 28.3 31.8 19.5 59 5.8 CALM 0 0 0 0 - - 0.0
27/05:30am 28.5 32.1 19.7 59 5.8 CALM 0 0 0 0 - - 0.0
27/05:00am 28.4 31.9 20.4 62 5.3 SW 2 4 1 2 - - 0.0
27/04:30am 28.0 31.3 20.8 65 4.8 SSW 4 6 2 3 - - 0.0
27/04:00am 28.2 32.3 20.7 63 5.0 CALM 0 0 0 0 - - 0.0
27/03:30am 28.6 32.2 19.8 59 5.8 CALM 0 0 0 0 - - 0.0
27/03:00am 28.4 32.1 19.9 60 5.6 CALM 0 4 0 2 - - 0.0
27/02:30am 29.1 32.1 18.5 52 6.9 CALM 0 0 0 0 - - 0.0
27/02:00am 29.1 32.3 18.8 53 6.7 CALM 0 0 0 0 - - 0.0
27/01:30am 29.3 32.3 18.4 51 7.1 CALM 0 2 0 1 - - 0.0
27/01:00am 29.2 32.5 19.2 54 6.5 CALM 0 2 0 1 - - 0.0
27/12:30am 29.5 32.3 18.9 53 6.9 W 2 4 1 2 - - 0.0
27/12:00am 29.7 33.1 19.4 54 6.8 CALM 0 6 0 3 - - 0.0
 
Date/Time
EST
Temp
°C
App
Temp
°C
Dew
Point
Rel
Hum
%
Delta-T
°C
Wind Press
QNH
hPa
Press
MSL
hPa
Rain
since 9 am
mm
Dir
 
Spd
km/h
Gust
km/h
Spd
kts
Gust
kts
26/11:30pm 30.6 33.7 19.6 51 7.3 SW 2 6 1 3 - - 0.0
26/11:00pm 30.7 33.2 18.1 47 8.2 SW 2 6 1 3 - - 0.0
26/10:30pm 30.8 32.6 18.2 47 8.2 S 6 7 3 4 - - 0.0
26/10:00pm 30.7 32.7 19.1 50 7.6 SW 7 11 4 6 - - 0.0
26/09:30pm 30.6 32.8 19.3 51 7.4 SSW 6 9 3 5 - - 0.0
26/09:00pm 30.6 33.6 19.3 51 7.4 SSW 2 4 1 2 - - 0.0
26/08:30pm 30.9 33.8 18.3 47 8.2 CALM 0 4 0 2 - - 0.0
26/08:00pm 31.3 33.9 18.3 46 8.5 WSW 2 6 1 3 - - 0.0
26/07:30pm 31.6 34.3 18.6 46 8.5 NW 2 7 1 4 - - 0.0
26/07:00pm 32.1 34.3 19.7 48 8.2 NNW 7 11 4 6 - - 0.0
26/06:30pm 33.0 35.5 19.1 43 9.2 N 4 7 2 4 - - 0.0
26/06:00pm 33.1 35.5 18.8 42 9.4 N 4 7 2 4 - - 0.0

Other Formats:

Comma delimited format used in spreadsheet applications
http://www.bom.gov.au/fwo/IDQ60801/IDQ60801.94348.axf

JavaScript Object Notation format (JSON) in row-major order
http://www.bom.gov.au/fwo/IDQ60801/IDQ60801.94348.json